sensor_id;sensor_type;location;lat;lon;timestamp;P1;durP1;ratioP1;P2;durP2;ratioP2
18228;SDS011;9239;50.932;3.142;2023-04-03T00:01:40;18.23;;;15.83;;
18228;SDS011;9239;50.932;3.142;2023-04-03T00:04:07;17.97;;;16.07;;
18228;SDS011;9239;50.932;3.142;2023-04-03T00:06:34;20.83;;;14.87;;
18228;SDS011;9239;50.932;3.142;2023-04-03T00:09:02;19.87;;;15.87;;
18228;SDS011;9239;50.932;3.142;2023-04-03T00:11:29;16.77;;;15.07;;
18228;SDS011;9239;50.932;3.142;2023-04-03T00:13:56;16.70;;;14.57;;
18228;SDS011;9239;50.932;3.142;2023-04-03T00:16:23;18.53;;;14.47;;
18228;SDS011;9239;50.932;3.142;2023-04-03T00:18:50;18.17;;;15.33;;
18228;SDS011;9239;50.932;3.142;2023-04-03T00:21:17;17.33;;;15.50;;
18228;SDS011;9239;50.932;3.142;2023-04-03T00:23:43;15.03;;;12.77;;
18228;SDS011;9239;50.932;3.142;2023-04-03T00:26:12;17.40;;;13.57;;
18228;SDS011;9239;50.932;3.142;2023-04-03T00:28:39;18.80;;;13.83;;
18228;SDS011;9239;50.932;3.142;2023-04-03T00:31:05;17.00;;;15.20;;
18228;SDS011;9239;50.932;3.142;2023-04-03T00:33:32;15.67;;;12.77;;
18228;SDS011;9239;50.932;3.142;2023-04-03T00:35:59;16.83;;;14.57;;
18228;SDS011;9239;50.932;3.142;2023-04-03T00:38:32;15.87;;;13.73;;
18228;SDS011;9239;50.932;3.142;2023-04-03T00:40:58;15.60;;;13.43;;
18228;SDS011;9239;50.932;3.142;2023-04-03T00:43:27;14.73;;;13.07;;
18228;SDS011;9239;50.932;3.142;2023-04-03T00:45:54;17.13;;;13.87;;
18228;SDS011;9239;50.932;3.142;2023-04-03T00:48:22;14.30;;;12.80;;
18228;SDS011;9239;50.932;3.142;2023-04-03T00:50:52;14.67;;;13.00;;
18228;SDS011;9239;50.932;3.142;2023-04-03T00:53:21;14.37;;;12.07;;
18228;SDS011;9239;50.932;3.142;2023-04-03T00:55:51;15.40;;;12.57;;
18228;SDS011;9239;50.932;3.142;2023-04-03T00:58:20;12.60;;;11.07;;
18228;SDS011;9239;50.932;3.142;2023-04-03T01:00:54;13.73;;;12.20;;
18228;SDS011;9239;50.932;3.142;2023-04-03T01:03:23;15.87;;;11.57;;
18228;SDS011;9239;50.932;3.142;2023-04-03T01:05:51;15.43;;;12.67;;
18228;SDS011;9239;50.932;3.142;2023-04-03T01:08:18;13.67;;;11.93;;
18228;SDS011;9239;50.932;3.142;2023-04-03T01:10:45;15.57;;;11.70;;
18228;SDS011;9239;50.932;3.142;2023-04-03T01:13:22;15.53;;;11.70;;
18228;SDS011;9239;50.932;3.142;2023-04-03T01:15:51;13.40;;;11.33;;
18228;SDS011;9239;50.932;3.142;2023-04-03T01:18:20;13.33;;;11.50;;
18228;SDS011;9239;50.932;3.142;2023-04-03T01:23:59;12.37;;;10.50;;
18228;SDS011;9239;50.932;3.142;2023-04-03T01:26:36;12.07;;;10.50;;
18228;SDS011;9239;50.932;3.142;2023-04-03T01:29:03;13.00;;;10.07;;
18228;SDS011;9239;50.932;3.142;2023-04-03T01:34:09;13.97;;;10.97;;
18228;SDS011;9239;50.932;3.142;2023-04-03T01:36:36;12.20;;;10.63;;
18228;SDS011;9239;50.932;3.142;2023-04-03T01:39:03;10.90;;;9.80;;
18228;SDS011;9239;50.932;3.142;2023-04-03T01:41:30;13.17;;;11.90;;
18228;SDS011;9239;50.932;3.142;2023-04-03T01:43:57;13.00;;;10.80;;
18228;SDS011;9239;50.932;3.142;2023-04-03T01:46:24;13.47;;;10.80;;
18228;SDS011;9239;50.932;3.142;2023-04-03T01:48:52;10.23;;;9.13;;
18228;SDS011;9239;50.932;3.142;2023-04-03T01:51:19;13.37;;;10.70;;
18228;SDS011;9239;50.932;3.142;2023-04-03T01:53:46;10.93;;;9.80;;
18228;SDS011;9239;50.932;3.142;2023-04-03T01:56:13;10.63;;;9.53;;
18228;SDS011;9239;50.932;3.142;2023-04-03T01:58:40;12.40;;;10.13;;
18228;SDS011;9239;50.932;3.142;2023-04-03T02:01:07;10.07;;;9.07;;
18228;SDS011;9239;50.932;3.142;2023-04-03T02:03:34;10.27;;;9.07;;
18228;SDS011;9239;50.932;3.142;2023-04-03T02:06:02;11.23;;;9.33;;
18228;SDS011;9239;50.932;3.142;2023-04-03T02:08:29;10.93;;;9.77;;
18228;SDS011;9239;50.932;3.142;2023-04-03T02:10:56;10.83;;;9.53;;
18228;SDS011;9239;50.932;3.142;2023-04-03T02:13:23;12.07;;;10.33;;
18228;SDS011;9239;50.932;3.142;2023-04-03T02:15:50;10.30;;;9.30;;
18228;SDS011;9239;50.932;3.142;2023-04-03T02:18:17;11.80;;;9.23;;
18228;SDS011;9239;50.932;3.142;2023-04-03T02:20:44;11.47;;;9.40;;
18228;SDS011;9239;50.932;3.142;2023-04-03T02:23:13;12.23;;;10.07;;
18228;SDS011;9239;50.932;3.142;2023-04-03T02:25:40;10.60;;;9.53;;
18228;SDS011;9239;50.932;3.142;2023-04-03T02:28:07;11.57;;;10.37;;
18228;SDS011;9239;50.932;3.142;2023-04-03T02:30:34;11.70;;;9.60;;
18228;SDS011;9239;50.932;3.142;2023-04-03T02:33:00;11.80;;;9.47;;
18228;SDS011;9239;50.932;3.142;2023-04-03T02:35:27;14.63;;;10.30;;
18228;SDS011;9239;50.932;3.142;2023-04-03T02:37:54;11.93;;;10.30;;
18228;SDS011;9239;50.932;3.142;2023-04-03T02:40:22;11.90;;;10.33;;
18228;SDS011;9239;50.932;3.142;2023-04-03T02:42:49;12.20;;;10.40;;
18228;SDS011;9239;50.932;3.142;2023-04-03T02:45:16;12.37;;;11.07;;
18228;SDS011;9239;50.932;3.142;2023-04-03T02:47:43;13.27;;;11.13;;
18228;SDS011;9239;50.932;3.142;2023-04-03T02:50:10;12.50;;;11.27;;
18228;SDS011;9239;50.932;3.142;2023-04-03T02:52:36;13.40;;;12.10;;
18228;SDS011;9239;50.932;3.142;2023-04-03T02:55:03;14.33;;;12.83;;
18228;SDS011;9239;50.932;3.142;2023-04-03T02:57:32;14.03;;;11.87;;
18228;SDS011;9239;50.932;3.142;2023-04-03T03:00:00;13.47;;;11.90;;
18228;SDS011;9239;50.932;3.142;2023-04-03T03:02:27;15.70;;;12.47;;
18228;SDS011;9239;50.932;3.142;2023-04-03T03:04:54;15.43;;;12.23;;
18228;SDS011;9239;50.932;3.142;2023-04-03T03:07:21;13.73;;;12.40;;
18228;SDS011;9239;50.932;3.142;2023-04-03T03:09:48;16.50;;;12.93;;
18228;SDS011;9239;50.932;3.142;2023-04-03T03:12:14;13.63;;;12.20;;
18228;SDS011;9239;50.932;3.142;2023-04-03T03:14:47;15.50;;;11.40;;
18228;SDS011;9239;50.932;3.142;2023-04-03T03:17:14;14.10;;;12.10;;
18228;SDS011;9239;50.932;3.142;2023-04-03T03:19:41;13.73;;;11.00;;
18228;SDS011;9239;50.932;3.142;2023-04-03T03:22:08;14.17;;;11.47;;
18228;SDS011;9239;50.932;3.142;2023-04-03T03:24:35;13.80;;;11.90;;
18228;SDS011;9239;50.932;3.142;2023-04-03T03:27:02;15.50;;;11.87;;
18228;SDS011;9239;50.932;3.142;2023-04-03T03:29:29;14.67;;;11.53;;
18228;SDS011;9239;50.932;3.142;2023-04-03T03:31:57;13.87;;;12.10;;
18228;SDS011;9239;50.932;3.142;2023-04-03T03:34:24;14.80;;;12.37;;
18228;SDS011;9239;50.932;3.142;2023-04-03T03:36:51;14.10;;;11.60;;
18228;SDS011;9239;50.932;3.142;2023-04-03T03:39:17;11.80;;;10.57;;
18228;SDS011;9239;50.932;3.142;2023-04-03T03:41:44;17.23;;;13.13;;
18228;SDS011;9239;50.932;3.142;2023-04-03T03:44:11;13.33;;;12.00;;
18228;SDS011;9239;50.932;3.142;2023-04-03T03:46:38;14.00;;;11.23;;
18228;SDS011;9239;50.932;3.142;2023-04-03T03:49:06;14.30;;;11.57;;
18228;SDS011;9239;50.932;3.142;2023-04-03T03:51:33;13.90;;;11.03;;
18228;SDS011;9239;50.932;3.142;2023-04-03T03:54:00;13.47;;;11.63;;
18228;SDS011;9239;50.932;3.142;2023-04-03T03:56:27;12.37;;;11.07;;
18228;SDS011;9239;50.932;3.142;2023-04-03T03:58:54;14.57;;;11.60;;
18228;SDS011;9239;50.932;3.142;2023-04-03T04:01:21;13.93;;;11.40;;
18228;SDS011;9239;50.932;3.142;2023-04-03T04:03:48;12.57;;;11.07;;
18228;SDS011;9239;50.932;3.142;2023-04-03T04:06:16;13.30;;;10.33;;
18228;SDS011;9239;50.932;3.142;2023-04-03T04:08:43;12.03;;;10.83;;
18228;SDS011;9239;50.932;3.142;2023-04-03T04:11:10;12.87;;;10.00;;
18228;SDS011;9239;50.932;3.142;2023-04-03T04:13:37;13.03;;;10.37;;
18228;SDS011;9239;50.932;3.142;2023-04-03T04:16:04;12.80;;;10.47;;
18228;SDS011;9239;50.932;3.142;2023-04-03T04:18:31;15.23;;;10.30;;
18228;SDS011;9239;50.932;3.142;2023-04-03T04:20:58;11.43;;;10.10;;
18228;SDS011;9239;50.932;3.142;2023-04-03T04:23:26;11.93;;;10.13;;
18228;SDS011;9239;50.932;3.142;2023-04-03T04:25:53;12.13;;;9.97;;
18228;SDS011;9239;50.932;3.142;2023-04-03T04:28:20;12.07;;;10.73;;
18228;SDS011;9239;50.932;3.142;2023-04-03T04:30:47;13.30;;;11.90;;
18228;SDS011;9239;50.932;3.142;2023-04-03T04:33:13;12.90;;;10.13;;
18228;SDS011;9239;50.932;3.142;2023-04-03T04:35:41;13.53;;;11.50;;
18228;SDS011;9239;50.932;3.142;2023-04-03T04:38:08;15.87;;;11.53;;
18228;SDS011;9239;50.932;3.142;2023-04-03T04:40:36;12.77;;;11.00;;
18228;SDS011;9239;50.932;3.142;2023-04-03T04:43:03;13.83;;;11.00;;
18228;SDS011;9239;50.932;3.142;2023-04-03T04:45:30;13.13;;;10.63;;
18228;SDS011;9239;50.932;3.142;2023-04-03T04:47:57;11.40;;;10.23;;
18228;SDS011;9239;50.932;3.142;2023-04-03T04:50:24;10.13;;;9.10;;
18228;SDS011;9239;50.932;3.142;2023-04-03T04:52:51;12.13;;;9.87;;
18228;SDS011;9239;50.932;3.142;2023-04-03T04:55:18;9.63;;;8.60;;
18228;SDS011;9239;50.932;3.142;2023-04-03T04:57:46;9.13;;;8.23;;
18228;SDS011;9239;50.932;3.142;2023-04-03T05:00:14;8.17;;;7.37;;
18228;SDS011;9239;50.932;3.142;2023-04-03T05:02:41;9.60;;;8.60;;
18228;SDS011;9239;50.932;3.142;2023-04-03T05:05:08;10.67;;;8.30;;
18228;SDS011;9239;50.932;3.142;2023-04-03T05:07:35;9.43;;;8.63;;
18228;SDS011;9239;50.932;3.142;2023-04-03T05:10:02;9.17;;;8.10;;
18228;SDS011;9239;50.932;3.142;2023-04-03T05:12:30;11.40;;;8.03;;
18228;SDS011;9239;50.932;3.142;2023-04-03T05:14:59;9.93;;;8.97;;
18228;SDS011;9239;50.932;3.142;2023-04-03T05:17:26;9.50;;;8.50;;
18228;SDS011;9239;50.932;3.142;2023-04-03T05:19:53;11.40;;;8.33;;
18228;SDS011;9239;50.932;3.142;2023-04-03T05:22:20;8.97;;;7.93;;
18228;SDS011;9239;50.932;3.142;2023-04-03T05:24:46;8.63;;;7.83;;
18228;SDS011;9239;50.932;3.142;2023-04-03T05:27:13;9.17;;;8.37;;
18228;SDS011;9239;50.932;3.142;2023-04-03T05:29:40;9.80;;;8.90;;
18228;SDS011;9239;50.932;3.142;2023-04-03T05:32:10;8.50;;;7.60;;
18228;SDS011;9239;50.932;3.142;2023-04-03T05:34:37;8.13;;;7.33;;
18228;SDS011;9239;50.932;3.142;2023-04-03T05:37:04;9.37;;;7.23;;
18228;SDS011;9239;50.932;3.142;2023-04-03T05:39:31;9.13;;;7.37;;
18228;SDS011;9239;50.932;3.142;2023-04-03T05:41:58;8.33;;;7.17;;
18228;SDS011;9239;50.932;3.142;2023-04-03T05:44:24;7.97;;;6.87;;
18228;SDS011;9239;50.932;3.142;2023-04-03T05:46:51;8.43;;;7.60;;
18228;SDS011;9239;50.932;3.142;2023-04-03T05:49:19;8.93;;;6.80;;
18228;SDS011;9239;50.932;3.142;2023-04-03T05:51:46;9.43;;;7.13;;
18228;SDS011;9239;50.932;3.142;2023-04-03T05:54:13;8.10;;;7.40;;
18228;SDS011;9239;50.932;3.142;2023-04-03T05:56:44;7.10;;;6.43;;
18228;SDS011;9239;50.932;3.142;2023-04-03T05:59:11;13.90;;;11.60;;
18228;SDS011;9239;50.932;3.142;2023-04-03T06:01:38;7.10;;;6.40;;
18228;SDS011;9239;50.932;3.142;2023-04-03T06:04:05;8.07;;;6.80;;
18228;SDS011;9239;50.932;3.142;2023-04-03T06:06:48;7.00;;;6.30;;
18228;SDS011;9239;50.932;3.142;2023-04-03T06:09:18;9.73;;;8.67;;
18228;SDS011;9239;50.932;3.142;2023-04-03T06:11:47;7.40;;;6.63;;
18228;SDS011;9239;50.932;3.142;2023-04-03T06:14:14;7.00;;;5.97;;
18228;SDS011;9239;50.932;3.142;2023-04-03T06:16:40;6.50;;;5.87;;
18228;SDS011;9239;50.932;3.142;2023-04-03T06:19:08;6.77;;;6.17;;
18228;SDS011;9239;50.932;3.142;2023-04-03T06:21:36;7.13;;;5.83;;
18228;SDS011;9239;50.932;3.142;2023-04-03T06:24:04;6.40;;;5.90;;
18228;SDS011;9239;50.932;3.142;2023-04-03T06:26:32;7.50;;;5.83;;
18228;SDS011;9239;50.932;3.142;2023-04-03T06:29:00;9.57;;;5.83;;
18228;SDS011;9239;50.932;3.142;2023-04-03T06:31:27;7.30;;;5.73;;
18228;SDS011;9239;50.932;3.142;2023-04-03T06:33:54;7.93;;;6.90;;
18228;SDS011;9239;50.932;3.142;2023-04-03T06:36:21;10.27;;;6.43;;
18228;SDS011;9239;50.932;3.142;2023-04-03T06:38:48;8.57;;;6.33;;
18228;SDS011;9239;50.932;3.142;2023-04-03T06:41:17;11.43;;;9.10;;
18228;SDS011;9239;50.932;3.142;2023-04-03T06:43:44;6.83;;;6.10;;
18228;SDS011;9239;50.932;3.142;2023-04-03T06:46:13;6.87;;;6.07;;
18228;SDS011;9239;50.932;3.142;2023-04-03T06:48:41;7.00;;;6.10;;
18228;SDS011;9239;50.932;3.142;2023-04-03T06:51:11;6.50;;;5.90;;
18228;SDS011;9239;50.932;3.142;2023-04-03T06:53:43;6.70;;;6.07;;
18228;SDS011;9239;50.932;3.142;2023-04-03T06:56:09;7.53;;;6.40;;
18228;SDS011;9239;50.932;3.142;2023-04-03T06:58:38;8.30;;;5.43;;
18228;SDS011;9239;50.932;3.142;2023-04-03T07:01:05;5.90;;;5.30;;
18228;SDS011;9239;50.932;3.142;2023-04-03T07:03:32;6.53;;;5.90;;
18228;SDS011;9239;50.932;3.142;2023-04-03T07:06:00;6.10;;;5.60;;
18228;SDS011;9239;50.932;3.142;2023-04-03T07:08:27;5.73;;;5.23;;
18228;SDS011;9239;50.932;3.142;2023-04-03T07:10:54;6.27;;;5.63;;
18228;SDS011;9239;50.932;3.142;2023-04-03T07:13:21;6.70;;;6.00;;
18228;SDS011;9239;50.932;3.142;2023-04-03T07:15:49;8.67;;;7.70;;
18228;SDS011;9239;50.932;3.142;2023-04-03T07:18:16;7.83;;;5.30;;
18228;SDS011;9239;50.932;3.142;2023-04-03T07:20:43;8.03;;;5.20;;
18228;SDS011;9239;50.932;3.142;2023-04-03T07:23:10;5.17;;;4.77;;
18228;SDS011;9239;50.932;3.142;2023-04-03T07:25:40;6.00;;;5.40;;
18228;SDS011;9239;50.932;3.142;2023-04-03T07:28:08;5.10;;;4.63;;
18228;SDS011;9239;50.932;3.142;2023-04-03T07:30:41;7.03;;;4.90;;
18228;SDS011;9239;50.932;3.142;2023-04-03T07:33:10;5.20;;;4.70;;
18228;SDS011;9239;50.932;3.142;2023-04-03T07:35:37;6.03;;;4.60;;
18228;SDS011;9239;50.932;3.142;2023-04-03T07:38:04;5.40;;;4.90;;
18228;SDS011;9239;50.932;3.142;2023-04-03T07:40:31;6.30;;;4.90;;
18228;SDS011;9239;50.932;3.142;2023-04-03T07:42:58;6.40;;;4.83;;
18228;SDS011;9239;50.932;3.142;2023-04-03T07:45:25;5.03;;;4.53;;
18228;SDS011;9239;50.932;3.142;2023-04-03T07:47:52;4.93;;;4.07;;
18228;SDS011;9239;50.932;3.142;2023-04-03T07:50:21;8.10;;;4.87;;
18228;SDS011;9239;50.932;3.142;2023-04-03T07:52:48;4.73;;;4.23;;
18228;SDS011;9239;50.932;3.142;2023-04-03T07:55:15;6.80;;;5.00;;
18228;SDS011;9239;50.932;3.142;2023-04-03T07:57:43;7.33;;;4.70;;
18228;SDS011;9239;50.932;3.142;2023-04-03T08:00:10;4.13;;;3.70;;
18228;SDS011;9239;50.932;3.142;2023-04-03T08:02:38;4.77;;;4.20;;
18228;SDS011;9239;50.932;3.142;2023-04-03T08:05:05;4.53;;;4.13;;
18228;SDS011;9239;50.932;3.142;2023-04-03T08:07:34;6.40;;;5.67;;
18228;SDS011;9239;50.932;3.142;2023-04-03T08:10:03;4.77;;;3.90;;
18228;SDS011;9239;50.932;3.142;2023-04-03T08:12:30;4.83;;;3.90;;
18228;SDS011;9239;50.932;3.142;2023-04-03T08:14:59;5.57;;;3.87;;
18228;SDS011;9239;50.932;3.142;2023-04-03T08:17:26;4.50;;;4.10;;
18228;SDS011;9239;50.932;3.142;2023-04-03T08:19:53;4.90;;;3.67;;
18228;SDS011;9239;50.932;3.142;2023-04-03T08:22:20;5.20;;;3.73;;
18228;SDS011;9239;50.932;3.142;2023-04-03T08:24:49;4.53;;;3.67;;
18228;SDS011;9239;50.932;3.142;2023-04-03T08:27:16;4.47;;;3.30;;
18228;SDS011;9239;50.932;3.142;2023-04-03T08:29:42;4.00;;;3.60;;
18228;SDS011;9239;50.932;3.142;2023-04-03T08:32:09;6.37;;;3.60;;
18228;SDS011;9239;50.932;3.142;2023-04-03T08:34:36;4.60;;;4.13;;
18228;SDS011;9239;50.932;3.142;2023-04-03T08:37:04;6.80;;;4.43;;
18228;SDS011;9239;50.932;3.142;2023-04-03T08:39:31;5.17;;;4.57;;
18228;SDS011;9239;50.932;3.142;2023-04-03T08:42:00;8.50;;;4.57;;
18228;SDS011;9239;50.932;3.142;2023-04-03T08:44:36;7.57;;;6.43;;
18228;SDS011;9239;50.932;3.142;2023-04-03T08:47:10;6.17;;;5.50;;
18228;SDS011;9239;50.932;3.142;2023-04-03T08:49:44;6.63;;;5.37;;
18228;SDS011;9239;50.932;3.142;2023-04-03T08:52:17;9.10;;;6.43;;
18228;SDS011;9239;50.932;3.142;2023-04-03T08:54:50;8.57;;;6.63;;
18228;SDS011;9239;50.932;3.142;2023-04-03T08:57:23;8.40;;;6.87;;
18228;SDS011;9239;50.932;3.142;2023-04-03T08:59:55;7.60;;;6.80;;
18228;SDS011;9239;50.932;3.142;2023-04-03T09:02:25;7.67;;;6.73;;
18228;SDS011;9239;50.932;3.142;2023-04-03T09:04:57;8.10;;;6.57;;
18228;SDS011;9239;50.932;3.142;2023-04-03T09:07:29;8.07;;;7.17;;
18228;SDS011;9239;50.932;3.142;2023-04-03T09:10:02;14.00;;;8.43;;
18228;SDS011;9239;50.932;3.142;2023-04-03T09:12:33;8.87;;;7.07;;
18228;SDS011;9239;50.932;3.142;2023-04-03T09:15:05;8.70;;;7.87;;
18228;SDS011;9239;50.932;3.142;2023-04-03T09:17:41;8.50;;;7.50;;
18228;SDS011;9239;50.932;3.142;2023-04-03T09:20:17;8.00;;;7.20;;
18228;SDS011;9239;50.932;3.142;2023-04-03T09:22:51;9.63;;;7.63;;
18228;SDS011;9239;50.932;3.142;2023-04-03T09:25:20;9.40;;;6.93;;
18228;SDS011;9239;50.932;3.142;2023-04-03T09:27:50;8.17;;;7.47;;
18228;SDS011;9239;50.932;3.142;2023-04-03T09:30:18;9.90;;;8.90;;
18228;SDS011;9239;50.932;3.142;2023-04-03T09:32:49;10.67;;;8.20;;
18228;SDS011;9239;50.932;3.142;2023-04-03T09:35:22;9.40;;;7.60;;
18228;SDS011;9239;50.932;3.142;2023-04-03T09:37:51;7.53;;;6.83;;
18228;SDS011;9239;50.932;3.142;2023-04-03T09:40:30;9.03;;;8.17;;
18228;SDS011;9239;50.932;3.142;2023-04-03T09:43:08;8.40;;;7.63;;
18228;SDS011;9239;50.932;3.142;2023-04-03T09:45:50;6.47;;;5.97;;
18228;SDS011;9239;50.932;3.142;2023-04-03T09:48:18;6.83;;;6.13;;
18228;SDS011;9239;50.932;3.142;2023-04-03T09:50:56;7.10;;;5.80;;
18228;SDS011;9239;50.932;3.142;2023-04-03T09:53:27;7.93;;;5.50;;
18228;SDS011;9239;50.932;3.142;2023-04-03T09:55:56;9.30;;;5.87;;
18228;SDS011;9239;50.932;3.142;2023-04-03T09:58:25;8.53;;;6.10;;
18228;SDS011;9239;50.932;3.142;2023-04-03T10:00:54;8.50;;;6.10;;
18228;SDS011;9239;50.932;3.142;2023-04-03T10:03:23;6.70;;;6.07;;
18228;SDS011;9239;50.932;3.142;2023-04-03T10:05:53;7.00;;;5.50;;
18228;SDS011;9239;50.932;3.142;2023-04-03T10:08:22;7.07;;;5.90;;
18228;SDS011;9239;50.932;3.142;2023-04-03T10:11:11;6.40;;;4.83;;
18228;SDS011;9239;50.932;3.142;2023-04-03T10:13:54;5.87;;;4.30;;
18228;SDS011;9239;50.932;3.142;2023-04-03T10:16:25;6.23;;;4.57;;
18228;SDS011;9239;50.932;3.142;2023-04-03T10:18:58;5.00;;;4.47;;
18228;SDS011;9239;50.932;3.142;2023-04-03T10:21:44;5.83;;;4.10;;
18228;SDS011;9239;50.932;3.142;2023-04-03T10:24:16;4.33;;;3.93;;
18228;SDS011;9239;50.932;3.142;2023-04-03T10:26:50;8.20;;;3.60;;
18228;SDS011;9239;50.932;3.142;2023-04-03T10:29:30;5.40;;;3.77;;
18228;SDS011;9239;50.932;3.142;2023-04-03T10:35:08;3.90;;;3.50;;
18228;SDS011;9239;50.932;3.142;2023-04-03T10:37:48;5.70;;;4.10;;
18228;SDS011;9239;50.932;3.142;2023-04-03T10:40:24;5.57;;;3.77;;
18228;SDS011;9239;50.932;3.142;2023-04-03T10:43:00;7.20;;;3.50;;
18228;SDS011;9239;50.932;3.142;2023-04-03T10:45:36;5.57;;;4.00;;
18228;SDS011;9239;50.932;3.142;2023-04-03T10:48:25;5.90;;;4.20;;
18228;SDS011;9239;50.932;3.142;2023-04-03T10:51:04;6.90;;;3.93;;
18228;SDS011;9239;50.932;3.142;2023-04-03T10:53:38;6.30;;;3.60;;
18228;SDS011;9239;50.932;3.142;2023-04-03T10:56:11;4.53;;;3.47;;
18228;SDS011;9239;50.932;3.142;2023-04-03T10:58:43;5.27;;;3.57;;
18228;SDS011;9239;50.932;3.142;2023-04-03T11:01:13;6.93;;;3.50;;
18228;SDS011;9239;50.932;3.142;2023-04-03T11:03:45;5.90;;;5.30;;
18228;SDS011;9239;50.932;3.142;2023-04-03T11:06:16;5.23;;;3.53;;
18228;SDS011;9239;50.932;3.142;2023-04-03T11:08:47;4.53;;;2.93;;
18228;SDS011;9239;50.932;3.142;2023-04-03T11:11:20;4.50;;;3.00;;
18228;SDS011;9239;50.932;3.142;2023-04-03T11:13:52;5.17;;;3.20;;
18228;SDS011;9239;50.932;3.142;2023-04-03T11:16:24;6.47;;;3.70;;
18228;SDS011;9239;50.932;3.142;2023-04-03T11:18:54;4.20;;;2.70;;
18228;SDS011;9239;50.932;3.142;2023-04-03T11:21:27;3.70;;;2.50;;
18228;SDS011;9239;50.932;3.142;2023-04-03T11:23:56;5.03;;;3.13;;
18228;SDS011;9239;50.932;3.142;2023-04-03T11:26:24;3.87;;;3.20;;
18228;SDS011;9239;50.932;3.142;2023-04-03T11:28:56;6.23;;;2.90;;
18228;SDS011;9239;50.932;3.142;2023-04-03T11:31:41;5.20;;;2.70;;
18228;SDS011;9239;50.932;3.142;2023-04-03T11:34:23;3.20;;;2.90;;
18228;SDS011;9239;50.932;3.142;2023-04-03T11:37:01;4.80;;;3.27;;
18228;SDS011;9239;50.932;3.142;2023-04-03T11:39:33;2.90;;;2.50;;
18228;SDS011;9239;50.932;3.142;2023-04-03T11:42:16;6.63;;;3.20;;
18228;SDS011;9239;50.932;3.142;2023-04-03T11:44:49;5.20;;;3.37;;
18228;SDS011;9239;50.932;3.142;2023-04-03T11:53:25;3.70;;;2.90;;
18228;SDS011;9239;50.932;3.142;2023-04-03T11:59:15;4.33;;;2.90;;
18228;SDS011;9239;50.932;3.142;2023-04-03T12:01:48;3.17;;;2.87;;
18228;SDS011;9239;50.932;3.142;2023-04-03T12:04:18;3.93;;;2.60;;
18228;SDS011;9239;50.932;3.142;2023-04-03T12:12:29;5.30;;;3.00;;
18228;SDS011;9239;50.932;3.142;2023-04-03T12:15:11;6.00;;;3.10;;
18228;SDS011;9239;50.932;3.142;2023-04-03T12:17:44;4.03;;;2.53;;
18228;SDS011;9239;50.932;3.142;2023-04-03T12:23:28;3.10;;;2.73;;
18228;SDS011;9239;50.932;3.142;2023-04-03T12:26:02;3.73;;;2.83;;
18228;SDS011;9239;50.932;3.142;2023-04-03T12:28:40;3.87;;;2.60;;
18228;SDS011;9239;50.932;3.142;2023-04-03T12:31:08;5.87;;;3.03;;
18228;SDS011;9239;50.932;3.142;2023-04-03T12:33:51;3.87;;;2.70;;
18228;SDS011;9239;50.932;3.142;2023-04-03T12:36:36;3.87;;;2.33;;
18228;SDS011;9239;50.932;3.142;2023-04-03T12:42:23;4.77;;;2.60;;
18228;SDS011;9239;50.932;3.142;2023-04-03T12:45:02;3.73;;;1.70;;
18228;SDS011;9239;50.932;3.142;2023-04-03T12:47:39;3.50;;;1.90;;
18228;SDS011;9239;50.932;3.142;2023-04-03T12:50:16;2.67;;;1.90;;
18228;SDS011;9239;50.932;3.142;2023-04-03T12:52:51;7.63;;;2.50;;
18228;SDS011;9239;50.932;3.142;2023-04-03T12:55:23;2.43;;;1.40;;
18228;SDS011;9239;50.932;3.142;2023-04-03T12:57:51;3.03;;;1.70;;
18228;SDS011;9239;50.932;3.142;2023-04-03T13:00:25;1.67;;;1.43;;
18228;SDS011;9239;50.932;3.142;2023-04-03T13:03:04;3.83;;;1.53;;
18228;SDS011;9239;50.932;3.142;2023-04-03T13:05:33;4.27;;;1.83;;
18228;SDS011;9239;50.932;3.142;2023-04-03T13:08:03;3.47;;;1.67;;
18228;SDS011;9239;50.932;3.142;2023-04-03T13:10:41;3.70;;;1.93;;
18228;SDS011;9239;50.932;3.142;2023-04-03T13:13:13;2.43;;;1.90;;
18228;SDS011;9239;50.932;3.142;2023-04-03T13:15:42;4.20;;;1.80;;
18228;SDS011;9239;50.932;3.142;2023-04-03T13:18:21;1.67;;;1.40;;
18228;SDS011;9239;50.932;3.142;2023-04-03T13:20:53;3.00;;;1.63;;
18228;SDS011;9239;50.932;3.142;2023-04-03T13:23:28;2.30;;;1.40;;
18228;SDS011;9239;50.932;3.142;2023-04-03T13:25:56;1.57;;;1.30;;
18228;SDS011;9239;50.932;3.142;2023-04-03T13:28:27;2.43;;;1.40;;
18228;SDS011;9239;50.932;3.142;2023-04-03T13:30:59;2.97;;;1.47;;
18228;SDS011;9239;50.932;3.142;2023-04-03T13:33:35;2.30;;;1.70;;
18228;SDS011;9239;50.932;3.142;2023-04-03T13:36:05;2.37;;;1.83;;
18228;SDS011;9239;50.932;3.142;2023-04-03T13:38:35;3.83;;;2.77;;
18228;SDS011;9239;50.932;3.142;2023-04-03T13:41:04;2.00;;;1.80;;
18228;SDS011;9239;50.932;3.142;2023-04-03T13:43:47;3.77;;;1.60;;
18228;SDS011;9239;50.932;3.142;2023-04-03T13:46:22;2.23;;;1.80;;
18228;SDS011;9239;50.932;3.142;2023-04-03T13:48:51;4.10;;;2.03;;
18228;SDS011;9239;50.932;3.142;2023-04-03T13:51:21;4.00;;;2.17;;
18228;SDS011;9239;50.932;3.142;2023-04-03T13:53:53;2.23;;;2.00;;
18228;SDS011;9239;50.932;3.142;2023-04-03T13:56:24;2.57;;;1.70;;
18228;SDS011;9239;50.932;3.142;2023-04-03T13:59:02;2.57;;;2.20;;
18228;SDS011;9239;50.932;3.142;2023-04-03T14:01:38;3.57;;;2.70;;
18228;SDS011;9239;50.932;3.142;2023-04-03T14:04:12;4.97;;;2.33;;
18228;SDS011;9239;50.932;3.142;2023-04-03T14:06:42;4.40;;;2.90;;
18228;SDS011;9239;50.932;3.142;2023-04-03T14:09:10;2.47;;;2.20;;
18228;SDS011;9239;50.932;3.142;2023-04-03T14:11:37;2.93;;;1.90;;
18228;SDS011;9239;50.932;3.142;2023-04-03T14:14:06;4.20;;;2.47;;
18228;SDS011;9239;50.932;3.142;2023-04-03T14:16:39;3.67;;;2.50;;
18228;SDS011;9239;50.932;3.142;2023-04-03T14:19:10;4.80;;;2.50;;
18228;SDS011;9239;50.932;3.142;2023-04-03T14:21:44;3.30;;;2.20;;
18228;SDS011;9239;50.932;3.142;2023-04-03T14:24:12;2.97;;;2.03;;
18228;SDS011;9239;50.932;3.142;2023-04-03T14:26:39;2.70;;;2.27;;
18228;SDS011;9239;50.932;3.142;2023-04-03T14:29:09;3.77;;;2.27;;
18228;SDS011;9239;50.932;3.142;2023-04-03T14:31:37;2.93;;;2.07;;
18228;SDS011;9239;50.932;3.142;2023-04-03T14:34:05;4.13;;;2.20;;
18228;SDS011;9239;50.932;3.142;2023-04-03T14:36:31;4.10;;;2.10;;
18228;SDS011;9239;50.932;3.142;2023-04-03T14:38:59;3.40;;;2.10;;
18228;SDS011;9239;50.932;3.142;2023-04-03T14:41:28;5.03;;;2.90;;
18228;SDS011;9239;50.932;3.142;2023-04-03T14:43:55;3.73;;;2.37;;
18228;SDS011;9239;50.932;3.142;2023-04-03T14:46:25;2.50;;;1.80;;
18228;SDS011;9239;50.932;3.142;2023-04-03T14:48:55;3.50;;;2.40;;
18228;SDS011;9239;50.932;3.142;2023-04-03T14:51:22;2.33;;;2.13;;
18228;SDS011;9239;50.932;3.142;2023-04-03T14:53:49;3.83;;;1.77;;
18228;SDS011;9239;50.932;3.142;2023-04-03T14:56:17;4.10;;;2.13;;
18228;SDS011;9239;50.932;3.142;2023-04-03T14:58:48;3.10;;;1.87;;
18228;SDS011;9239;50.932;3.142;2023-04-03T15:01:17;4.97;;;2.10;;
18228;SDS011;9239;50.932;3.142;2023-04-03T15:03:44;2.60;;;1.77;;
18228;SDS011;9239;50.932;3.142;2023-04-03T15:06:11;3.33;;;1.77;;
18228;SDS011;9239;50.932;3.142;2023-04-03T15:08:40;3.30;;;1.97;;
18228;SDS011;9239;50.932;3.142;2023-04-03T15:11:08;4.70;;;2.40;;
18228;SDS011;9239;50.932;3.142;2023-04-03T15:13:36;3.10;;;1.83;;
18228;SDS011;9239;50.932;3.142;2023-04-03T15:16:05;3.50;;;2.60;;
18228;SDS011;9239;50.932;3.142;2023-04-03T15:18:37;3.20;;;1.83;;
18228;SDS011;9239;50.932;3.142;2023-04-03T15:21:05;2.67;;;2.23;;
18228;SDS011;9239;50.932;3.142;2023-04-03T15:23:32;3.30;;;2.17;;
18228;SDS011;9239;50.932;3.142;2023-04-03T15:25:59;3.87;;;2.13;;
18228;SDS011;9239;50.932;3.142;2023-04-03T15:28:27;2.67;;;1.30;;
18228;SDS011;9239;50.932;3.142;2023-04-03T15:30:56;2.30;;;1.80;;
18228;SDS011;9239;50.932;3.142;2023-04-03T15:33:25;2.10;;;1.90;;
18228;SDS011;9239;50.932;3.142;2023-04-03T15:35:52;3.97;;;2.30;;
18228;SDS011;9239;50.932;3.142;2023-04-03T15:38:19;2.63;;;1.70;;